sensor_id;sensor_type;location;lat;lon;timestamp;temperature;humidity
26589;DHT22;14235;48.532;8.722;2023-05-06T00:02:03;16.00;99.90
26589;DHT22;14235;48.532;8.722;2023-05-06T00:04:29;14.90;99.90
26589;DHT22;14235;48.532;8.722;2023-05-06T00:06:55;15.10;99.90
26589;DHT22;14235;48.532;8.722;2023-05-06T00:09:21;15.10;99.90
26589;DHT22;14235;48.532;8.722;2023-05-06T00:11:48;15.80;99.90
26589;DHT22;14235;48.532;8.722;2023-05-06T00:14:14;14.90;99.90
26589;DHT22;14235;48.532;8.722;2023-05-06T00:16:40;14.30;99.90
26589;DHT22;14235;48.532;8.722;2023-05-06T00:19:05;15.60;99.90
26589;DHT22;14235;48.532;8.722;2023-05-06T00:21:31;15.70;99.90
26589;DHT22;14235;48.532;8.722;2023-05-06T00:23:57;14.80;99.90
26589;DHT22;14235;48.532;8.722;2023-05-06T00:26:22;14.70;99.90
26589;DHT22;14235;48.532;8.722;2023-05-06T00:28:48;14.50;99.90
26589;DHT22;14235;48.532;8.722;2023-05-06T00:31:13;15.30;99.90
26589;DHT22;14235;48.532;8.722;2023-05-06T00:33:39;14.80;99.90
26589;DHT22;14235;48.532;8.722;2023-05-06T00:36:05;14.80;99.90
26589;DHT22;14235;48.532;8.722;2023-05-06T00:38:31;14.70;99.90
26589;DHT22;14235;48.532;8.722;2023-05-06T00:40:57;14.90;99.90
26589;DHT22;14235;48.532;8.722;2023-05-06T00:43:22;14.70;99.90
26589;DHT22;14235;48.532;8.722;2023-05-06T00:45:48;15.00;99.90
26589;DHT22;14235;48.532;8.722;2023-05-06T00:48:15;15.20;99.90
26589;DHT22;14235;48.532;8.722;2023-05-06T00:50:42;15.10;99.90
26589;DHT22;14235;48.532;8.722;2023-05-06T00:53:08;15.00;99.90
26589;DHT22;14235;48.532;8.722;2023-05-06T00:55:35;14.80;99.90
26589;DHT22;14235;48.532;8.722;2023-05-06T00:58:02;14.80;99.90
26589;DHT22;14235;48.532;8.722;2023-05-06T01:00:28;14.90;99.90
26589;DHT22;14235;48.532;8.722;2023-05-06T01:02:53;14.90;99.90
26589;DHT22;14235;48.532;8.722;2023-05-06T01:05:21;15.20;99.90
26589;DHT22;14235;48.532;8.722;2023-05-06T01:08:05;14.50;99.90
26589;DHT22;14235;48.532;8.722;2023-05-06T01:10:46;14.50;99.90
26589;DHT22;14235;48.532;8.722;2023-05-06T01:13:28;14.60;99.90
26589;DHT22;14235;48.532;8.722;2023-05-06T01:15:56;14.40;99.90
26589;DHT22;14235;48.532;8.722;2023-05-06T01:18:25;14.40;99.90
26589;DHT22;14235;48.532;8.722;2023-05-06T01:20:52;14.40;99.90
26589;DHT22;14235;48.532;8.722;2023-05-06T01:23:19;14.60;99.90
26589;DHT22;14235;48.532;8.722;2023-05-06T01:25:45;14.50;99.90
26589;DHT22;14235;48.532;8.722;2023-05-06T01:28:11;14.30;99.90
26589;DHT22;14235;48.532;8.722;2023-05-06T01:30:47;14.60;99.90
26589;DHT22;14235;48.532;8.722;2023-05-06T01:36:22;14.20;99.90
26589;DHT22;14235;48.532;8.722;2023-05-06T01:39:15;14.40;99.90
26589;DHT22;14235;48.532;8.722;2023-05-06T01:41:43;13.90;99.90
26589;DHT22;14235;48.532;8.722;2023-05-06T01:44:10;13.80;99.90
26589;DHT22;14235;48.532;8.722;2023-05-06T01:46:35;14.90;99.90
26589;DHT22;14235;48.532;8.722;2023-05-06T01:49:04;13.80;99.90
26589;DHT22;14235;48.532;8.722;2023-05-06T01:51:33;13.90;99.90
26589;DHT22;14235;48.532;8.722;2023-05-06T01:54:00;14.40;99.90
26589;DHT22;14235;48.532;8.722;2023-05-06T01:56:25;13.80;99.90
26589;DHT22;14235;48.532;8.722;2023-05-06T01:58:55;14.40;99.90
26589;DHT22;14235;48.532;8.722;2023-05-06T02:01:21;14.90;99.90
26589;DHT22;14235;48.532;8.722;2023-05-06T02:03:47;13.90;99.90
26589;DHT22;14235;48.532;8.722;2023-05-06T02:06:12;14.30;99.90
26589;DHT22;14235;48.532;8.722;2023-05-06T02:08:38;13.90;99.90
26589;DHT22;14235;48.532;8.722;2023-05-06T02:11:05;14.10;99.90
26589;DHT22;14235;48.532;8.722;2023-05-06T02:13:31;14.10;99.90
26589;DHT22;14235;48.532;8.722;2023-05-06T02:15:56;14.10;99.90
26589;DHT22;14235;48.532;8.722;2023-05-06T02:18:22;14.00;99.90
26589;DHT22;14235;48.532;8.722;2023-05-06T02:20:48;13.80;99.90
26589;DHT22;14235;48.532;8.722;2023-05-06T02:23:13;14.10;99.90
26589;DHT22;14235;48.532;8.722;2023-05-06T02:25:39;14.30;99.90
26589;DHT22;14235;48.532;8.722;2023-05-06T02:28:04;13.90;99.90
26589;DHT22;14235;48.532;8.722;2023-05-06T02:30:30;14.00;99.90
26589;DHT22;14235;48.532;8.722;2023-05-06T02:32:56;13.20;99.90
26589;DHT22;14235;48.532;8.722;2023-05-06T02:35:22;13.90;99.90
26589;DHT22;14235;48.532;8.722;2023-05-06T02:37:48;14.20;99.90
26589;DHT22;14235;48.532;8.722;2023-05-06T02:40:14;13.50;99.90
26589;DHT22;14235;48.532;8.722;2023-05-06T02:42:39;13.20;99.90
26589;DHT22;14235;48.532;8.722;2023-05-06T02:45:06;13.30;99.90
26589;DHT22;14235;48.532;8.722;2023-05-06T02:47:31;13.00;99.90
26589;DHT22;14235;48.532;8.722;2023-05-06T02:49:57;13.00;99.90
26589;DHT22;14235;48.532;8.722;2023-05-06T02:52:22;13.10;99.90
26589;DHT22;14235;48.532;8.722;2023-05-06T02:54:49;13.60;99.90
26589;DHT22;14235;48.532;8.722;2023-05-06T02:57:14;13.40;99.90
26589;DHT22;14235;48.532;8.722;2023-05-06T02:59:40;13.20;99.90
26589;DHT22;14235;48.532;8.722;2023-05-06T03:02:06;13.40;99.90
26589;DHT22;14235;48.532;8.722;2023-05-06T03:04:32;13.40;99.90
26589;DHT22;14235;48.532;8.722;2023-05-06T03:06:57;13.20;99.90
26589;DHT22;14235;48.532;8.722;2023-05-06T03:09:23;13.30;99.90
26589;DHT22;14235;48.532;8.722;2023-05-06T03:11:49;13.50;99.90
26589;DHT22;14235;48.532;8.722;2023-05-06T03:14:14;13.60;99.90
26589;DHT22;14235;48.532;8.722;2023-05-06T03:16:40;13.90;99.90
26589;DHT22;14235;48.532;8.722;2023-05-06T03:19:06;13.70;99.90
26589;DHT22;14235;48.532;8.722;2023-05-06T03:21:31;13.50;99.90
26589;DHT22;14235;48.532;8.722;2023-05-06T03:23:57;13.20;99.90
26589;DHT22;14235;48.532;8.722;2023-05-06T03:26:23;12.70;99.90
26589;DHT22;14235;48.532;8.722;2023-05-06T03:28:49;12.90;99.90
26589;DHT22;14235;48.532;8.722;2023-05-06T03:31:14;12.70;99.90
26589;DHT22;14235;48.532;8.722;2023-05-06T03:33:40;13.00;99.90
26589;DHT22;14235;48.532;8.722;2023-05-06T03:36:06;12.90;99.90
26589;DHT22;14235;48.532;8.722;2023-05-06T03:38:31;12.80;99.90
26589;DHT22;14235;48.532;8.722;2023-05-06T03:40:57;13.00;99.90
26589;DHT22;14235;48.532;8.722;2023-05-06T03:43:23;12.60;99.90
26589;DHT22;14235;48.532;8.722;2023-05-06T03:48:14;12.50;99.90
26589;DHT22;14235;48.532;8.722;2023-05-06T03:50:40;12.30;99.90
26589;DHT22;14235;48.532;8.722;2023-05-06T03:53:05;12.10;99.90
26589;DHT22;14235;48.532;8.722;2023-05-06T03:55:31;12.30;99.90
26589;DHT22;14235;48.532;8.722;2023-05-06T03:57:56;13.60;99.90
26589;DHT22;14235;48.532;8.722;2023-05-06T04:00:22;12.50;99.90
26589;DHT22;14235;48.532;8.722;2023-05-06T04:05:14;12.50;99.90
26589;DHT22;14235;48.532;8.722;2023-05-06T04:07:40;12.40;99.90
26589;DHT22;14235;48.532;8.722;2023-05-06T04:10:06;13.70;99.90
26589;DHT22;14235;48.532;8.722;2023-05-06T04:12:33;12.50;99.90
26589;DHT22;14235;48.532;8.722;2023-05-06T04:14:59;12.80;99.90
26589;DHT22;14235;48.532;8.722;2023-05-06T04:17:24;14.00;99.90
26589;DHT22;14235;48.532;8.722;2023-05-06T04:19:50;13.80;99.90
26589;DHT22;14235;48.532;8.722;2023-05-06T04:22:18;13.30;99.90
26589;DHT22;14235;48.532;8.722;2023-05-06T04:24:43;13.50;99.90
26589;DHT22;14235;48.532;8.722;2023-05-06T04:27:10;13.50;99.90
26589;DHT22;14235;48.532;8.722;2023-05-06T04:29:36;13.20;99.90
26589;DHT22;14235;48.532;8.722;2023-05-06T04:32:02;11.90;99.90
26589;DHT22;14235;48.532;8.722;2023-05-06T04:34:31;11.70;99.90
26589;DHT22;14235;48.532;8.722;2023-05-06T04:36:56;13.00;99.90
26589;DHT22;14235;48.532;8.722;2023-05-06T04:39:23;11.80;99.90
26589;DHT22;14235;48.532;8.722;2023-05-06T04:41:49;11.40;99.90
26589;DHT22;14235;48.532;8.722;2023-05-06T04:44:15;11.60;99.90
26589;DHT22;14235;48.532;8.722;2023-05-06T04:46:41;11.50;99.90
26589;DHT22;14235;48.532;8.722;2023-05-06T04:49:06;12.90;99.90
26589;DHT22;14235;48.532;8.722;2023-05-06T04:51:32;11.50;99.90
26589;DHT22;14235;48.532;8.722;2023-05-06T04:53:57;11.80;99.90
26589;DHT22;14235;48.532;8.722;2023-05-06T04:56:23;12.00;99.90
26589;DHT22;14235;48.532;8.722;2023-05-06T04:58:48;11.80;99.90
26589;DHT22;14235;48.532;8.722;2023-05-06T05:01:14;12.40;99.90
26589;DHT22;14235;48.532;8.722;2023-05-06T05:03:40;12.20;99.90
26589;DHT22;14235;48.532;8.722;2023-05-06T05:06:05;11.80;99.90
26589;DHT22;14235;48.532;8.722;2023-05-06T05:08:31;11.90;99.90
26589;DHT22;14235;48.532;8.722;2023-05-06T05:10:57;13.30;99.90
26589;DHT22;14235;48.532;8.722;2023-05-06T05:13:22;12.00;99.90
26589;DHT22;14235;48.532;8.722;2023-05-06T05:15:48;11.80;99.90
26589;DHT22;14235;48.532;8.722;2023-05-06T05:18:13;12.50;99.90
26589;DHT22;14235;48.532;8.722;2023-05-06T05:20:39;12.30;99.90
26589;DHT22;14235;48.532;8.722;2023-05-06T05:23:05;12.90;99.90
26589;DHT22;14235;48.532;8.722;2023-05-06T05:25:31;12.00;99.90
26589;DHT22;14235;48.532;8.722;2023-05-06T05:27:56;12.40;99.90
26589;DHT22;14235;48.532;8.722;2023-05-06T05:30:22;13.40;99.90
26589;DHT22;14235;48.532;8.722;2023-05-06T05:32:48;13.90;99.90
26589;DHT22;14235;48.532;8.722;2023-05-06T05:35:13;11.90;99.90
26589;DHT22;14235;48.532;8.722;2023-05-06T05:37:39;13.70;99.90
26589;DHT22;14235;48.532;8.722;2023-05-06T05:40:05;12.10;99.90
26589;DHT22;14235;48.532;8.722;2023-05-06T05:42:31;12.30;99.90
26589;DHT22;14235;48.532;8.722;2023-05-06T05:44:58;13.40;99.90
26589;DHT22;14235;48.532;8.722;2023-05-06T05:47:24;13.60;99.90
26589;DHT22;14235;48.532;8.722;2023-05-06T05:49:49;12.50;99.90
26589;DHT22;14235;48.532;8.722;2023-05-06T05:52:15;12.40;99.90
26589;DHT22;14235;48.532;8.722;2023-05-06T05:54:41;12.30;99.90
26589;DHT22;14235;48.532;8.722;2023-05-06T05:57:06;12.60;99.90
26589;DHT22;14235;48.532;8.722;2023-05-06T05:59:32;12.50;99.90
26589;DHT22;14235;48.532;8.722;2023-05-06T06:01:57;13.50;99.90
26589;DHT22;14235;48.532;8.722;2023-05-06T06:04:23;13.80;99.90
26589;DHT22;14235;48.532;8.722;2023-05-06T06:06:49;12.60;99.90
26589;DHT22;14235;48.532;8.722;2023-05-06T06:09:14;12.50;99.90
26589;DHT22;14235;48.532;8.722;2023-05-06T06:11:41;13.80;99.90
26589;DHT22;14235;48.532;8.722;2023-05-06T06:14:07;14.10;99.90
26589;DHT22;14235;48.532;8.722;2023-05-06T06:16:32;13.00;99.90
26589;DHT22;14235;48.532;8.722;2023-05-06T06:18:58;12.50;99.90
26589;DHT22;14235;48.532;8.722;2023-05-06T06:21:24;13.80;99.90
26589;DHT22;14235;48.532;8.722;2023-05-06T06:23:50;13.60;99.90
26589;DHT22;14235;48.532;8.722;2023-05-06T06:26:15;13.90;99.90
26589;DHT22;14235;48.532;8.722;2023-05-06T06:28:41;13.00;99.90
26589;DHT22;14235;48.532;8.722;2023-05-06T06:31:09;12.70;99.90
26589;DHT22;14235;48.532;8.722;2023-05-06T06:33:34;13.60;99.90
26589;DHT22;14235;48.532;8.722;2023-05-06T06:36:00;13.10;99.90
26589;DHT22;14235;48.532;8.722;2023-05-06T06:38:26;14.30;99.90
26589;DHT22;14235;48.532;8.722;2023-05-06T06:40:52;13.10;99.90
26589;DHT22;14235;48.532;8.722;2023-05-06T06:43:18;13.00;99.90
26589;DHT22;14235;48.532;8.722;2023-05-06T06:45:48;13.90;99.90
26589;DHT22;14235;48.532;8.722;2023-05-06T06:48:14;14.50;99.90
26589;DHT22;14235;48.532;8.722;2023-05-06T06:50:39;14.10;99.90
26589;DHT22;14235;48.532;8.722;2023-05-06T06:53:05;14.60;99.90
26589;DHT22;14235;48.532;8.722;2023-05-06T06:55:30;13.60;99.90
26589;DHT22;14235;48.532;8.722;2023-05-06T06:57:56;14.30;99.90
26589;DHT22;14235;48.532;8.722;2023-05-06T07:00:22;13.80;99.90
26589;DHT22;14235;48.532;8.722;2023-05-06T07:02:47;13.50;99.90
26589;DHT22;14235;48.532;8.722;2023-05-06T07:05:13;14.10;99.90
26589;DHT22;14235;48.532;8.722;2023-05-06T07:07:39;13.60;99.90
26589;DHT22;14235;48.532;8.722;2023-05-06T07:10:05;14.90;99.90
26589;DHT22;14235;48.532;8.722;2023-05-06T07:12:31;13.70;99.90
26589;DHT22;14235;48.532;8.722;2023-05-06T07:15:00;14.80;99.90
26589;DHT22;14235;48.532;8.722;2023-05-06T07:17:26;13.90;99.90
26589;DHT22;14235;48.532;8.722;2023-05-06T07:19:51;14.30;99.90
26589;DHT22;14235;48.532;8.722;2023-05-06T07:22:17;13.80;99.90
26589;DHT22;14235;48.532;8.722;2023-05-06T07:24:42;14.00;99.90
26589;DHT22;14235;48.532;8.722;2023-05-06T07:27:08;13.80;99.90
26589;DHT22;14235;48.532;8.722;2023-05-06T07:29:34;14.30;99.90
26589;DHT22;14235;48.532;8.722;2023-05-06T07:32:01;13.80;99.90
26589;DHT22;14235;48.532;8.722;2023-05-06T07:34:27;15.30;99.90
26589;DHT22;14235;48.532;8.722;2023-05-06T07:36:52;14.40;99.90
26589;DHT22;14235;48.532;8.722;2023-05-06T07:39:18;15.50;99.90
26589;DHT22;14235;48.532;8.722;2023-05-06T07:41:44;14.40;99.90
26589;DHT22;14235;48.532;8.722;2023-05-06T07:44:10;15.20;99.90
26589;DHT22;14235;48.532;8.722;2023-05-06T07:46:36;14.30;99.90
26589;DHT22;14235;48.532;8.722;2023-05-06T07:49:01;14.40;99.90
26589;DHT22;14235;48.532;8.722;2023-05-06T07:51:27;14.90;99.90
26589;DHT22;14235;48.532;8.722;2023-05-06T07:53:52;14.50;99.90
26589;DHT22;14235;48.532;8.722;2023-05-06T07:56:18;14.60;99.90
26589;DHT22;14235;48.532;8.722;2023-05-06T07:58:43;14.80;99.90
26589;DHT22;14235;48.532;8.722;2023-05-06T08:01:09;15.70;99.90
26589;DHT22;14235;48.532;8.722;2023-05-06T08:03:35;15.30;99.90
26589;DHT22;14235;48.532;8.722;2023-05-06T08:06:00;14.90;99.90
26589;DHT22;14235;48.532;8.722;2023-05-06T08:08:26;15.50;99.90
26589;DHT22;14235;48.532;8.722;2023-05-06T08:10:58;15.10;99.90
26589;DHT22;14235;48.532;8.722;2023-05-06T08:13:24;15.30;99.90
26589;DHT22;14235;48.532;8.722;2023-05-06T08:15:50;15.20;99.90
26589;DHT22;14235;48.532;8.722;2023-05-06T08:18:16;15.50;99.90
26589;DHT22;14235;48.532;8.722;2023-05-06T08:20:42;15.80;99.90
26589;DHT22;14235;48.532;8.722;2023-05-06T08:23:07;16.50;99.90
26589;DHT22;14235;48.532;8.722;2023-05-06T08:25:33;15.80;99.90
26589;DHT22;14235;48.532;8.722;2023-05-06T08:27:59;15.70;99.90
26589;DHT22;14235;48.532;8.722;2023-05-06T08:30:27;15.80;99.90
26589;DHT22;14235;48.532;8.722;2023-05-06T08:32:55;15.90;99.90
26589;DHT22;14235;48.532;8.722;2023-05-06T08:35:22;15.90;99.90
26589;DHT22;14235;48.532;8.722;2023-05-06T08:37:49;16.10;99.90
26589;DHT22;14235;48.532;8.722;2023-05-06T08:40:19;16.10;99.90
26589;DHT22;14235;48.532;8.722;2023-05-06T08:42:46;16.20;99.90
26589;DHT22;14235;48.532;8.722;2023-05-06T08:45:16;16.40;99.90
26589;DHT22;14235;48.532;8.722;2023-05-06T08:47:42;16.40;99.90
26589;DHT22;14235;48.532;8.722;2023-05-06T08:50:32;16.50;99.90
26589;DHT22;14235;48.532;8.722;2023-05-06T08:53:01;16.40;99.90
26589;DHT22;14235;48.532;8.722;2023-05-06T08:55:29;16.50;99.90
26589;DHT22;14235;48.532;8.722;2023-05-06T08:57:57;16.50;99.90
26589;DHT22;14235;48.532;8.722;2023-05-06T09:00:32;16.60;99.90
26589;DHT22;14235;48.532;8.722;2023-05-06T09:02:58;16.60;99.90
26589;DHT22;14235;48.532;8.722;2023-05-06T09:05:24;16.70;99.90
26589;DHT22;14235;48.532;8.722;2023-05-06T09:07:50;16.60;99.90
26589;DHT22;14235;48.532;8.722;2023-05-06T09:10:16;16.60;99.90
26589;DHT22;14235;48.532;8.722;2023-05-06T09:12:43;16.70;99.90
26589;DHT22;14235;48.532;8.722;2023-05-06T09:15:09;16.60;99.90
26589;DHT22;14235;48.532;8.722;2023-05-06T09:17:35;16.70;99.90
26589;DHT22;14235;48.532;8.722;2023-05-06T09:20:01;16.70;99.90
26589;DHT22;14235;48.532;8.722;2023-05-06T09:22:29;16.70;99.90
26589;DHT22;14235;48.532;8.722;2023-05-06T09:24:58;16.80;99.90
26589;DHT22;14235;48.532;8.722;2023-05-06T09:27:28;16.90;99.90
26589;DHT22;14235;48.532;8.722;2023-05-06T09:30:12;17.00;99.90
26589;DHT22;14235;48.532;8.722;2023-05-06T09:32:38;17.10;99.90
26589;DHT22;14235;48.532;8.722;2023-05-06T09:35:07;17.10;99.90
26589;DHT22;14235;48.532;8.722;2023-05-06T09:37:35;17.20;99.90
26589;DHT22;14235;48.532;8.722;2023-05-06T09:40:01;17.30;99.90
26589;DHT22;14235;48.532;8.722;2023-05-06T09:42:38;17.30;99.90
26589;DHT22;14235;48.532;8.722;2023-05-06T09:45:07;17.30;99.90
26589;DHT22;14235;48.532;8.722;2023-05-06T09:47:42;17.30;99.90
26589;DHT22;14235;48.532;8.722;2023-05-06T09:50:20;17.40;99.90
26589;DHT22;14235;48.532;8.722;2023-05-06T09:52:54;17.30;99.90
26589;DHT22;14235;48.532;8.722;2023-05-06T09:55:42;17.30;99.90
26589;DHT22;14235;48.532;8.722;2023-05-06T09:58:13;17.40;99.90
26589;DHT22;14235;48.532;8.722;2023-05-06T10:00:45;17.30;99.90
26589;DHT22;14235;48.532;8.722;2023-05-06T10:03:17;17.40;99.90
26589;DHT22;14235;48.532;8.722;2023-05-06T10:05:51;17.40;99.90
26589;DHT22;14235;48.532;8.722;2023-05-06T10:08:23;17.50;99.90
26589;DHT22;14235;48.532;8.722;2023-05-06T10:10:49;17.60;99.90
26589;DHT22;14235;48.532;8.722;2023-05-06T10:13:20;17.70;99.90
26589;DHT22;14235;48.532;8.722;2023-05-06T10:19:10;17.70;99.90
26589;DHT22;14235;48.532;8.722;2023-05-06T10:22:30;17.70;99.90
26589;DHT22;14235;48.532;8.722;2023-05-06T10:27:57;17.70;99.90
26589;DHT22;14235;48.532;8.722;2023-05-06T10:30:29;17.70;99.90
26589;DHT22;14235;48.532;8.722;2023-05-06T10:32:58;17.70;99.90
26589;DHT22;14235;48.532;8.722;2023-05-06T10:38:36;17.80;99.90
26589;DHT22;14235;48.532;8.722;2023-05-06T10:41:06;17.80;99.90
26589;DHT22;14235;48.532;8.722;2023-05-06T10:48:22;18.00;99.90
26589;DHT22;14235;48.532;8.722;2023-05-06T10:58:19;18.20;99.90
26589;DHT22;14235;48.532;8.722;2023-05-06T11:00:53;18.20;99.90
26589;DHT22;14235;48.532;8.722;2023-05-06T11:03:22;18.30;99.90
26589;DHT22;14235;48.532;8.722;2023-05-06T11:05:54;18.30;99.90
26589;DHT22;14235;48.532;8.722;2023-05-06T11:08:24;18.40;99.90
26589;DHT22;14235;48.532;8.722;2023-05-06T11:10:53;18.50;99.90
26589;DHT22;14235;48.532;8.722;2023-05-06T11:13:27;18.60;99.90
26589;DHT22;14235;48.532;8.722;2023-05-06T11:15:56;18.80;99.90
26589;DHT22;14235;48.532;8.722;2023-05-06T11:26:17;19.10;99.90
26589;DHT22;14235;48.532;8.722;2023-05-06T11:28:44;19.20;99.90
26589;DHT22;14235;48.532;8.722;2023-05-06T11:31:16;19.30;99.90
26589;DHT22;14235;48.532;8.722;2023-05-06T11:33:47;19.40;98.30
26589;DHT22;14235;48.532;8.722;2023-05-06T11:36:22;19.50;97.80
26589;DHT22;14235;48.532;8.722;2023-05-06T11:38:49;19.70;95.80
26589;DHT22;14235;48.532;8.722;2023-05-06T11:41:18;19.70;95.20
26589;DHT22;14235;48.532;8.722;2023-05-06T11:43:48;19.80;96.00
26589;DHT22;14235;48.532;8.722;2023-05-06T11:46:14;19.80;95.50
26589;DHT22;14235;48.532;8.722;2023-05-06T11:51:24;20.00;95.90
26589;DHT22;14235;48.532;8.722;2023-05-06T11:54:04;20.10;96.00
26589;DHT22;14235;48.532;8.722;2023-05-06T11:56:29;20.20;96.90
26589;DHT22;14235;48.532;8.722;2023-05-06T11:58:55;20.20;96.40
26589;DHT22;14235;48.532;8.722;2023-05-06T12:01:21;20.10;95.70
26589;DHT22;14235;48.532;8.722;2023-05-06T12:03:46;20.10;95.60
26589;DHT22;14235;48.532;8.722;2023-05-06T12:06:12;20.10;95.50
26589;DHT22;14235;48.532;8.722;2023-05-06T12:08:38;20.10;95.00
26589;DHT22;14235;48.532;8.722;2023-05-06T12:11:06;20.00;93.40
26589;DHT22;14235;48.532;8.722;2023-05-06T12:13:33;20.20;93.70
26589;DHT22;14235;48.532;8.722;2023-05-06T12:16:01;19.90;95.10
26589;DHT22;14235;48.532;8.722;2023-05-06T12:18:28;19.90;95.10
26589;DHT22;14235;48.532;8.722;2023-05-06T12:20:55;19.80;95.10
26589;DHT22;14235;48.532;8.722;2023-05-06T12:23:21;19.80;95.80
26589;DHT22;14235;48.532;8.722;2023-05-06T12:26:04;19.90;95.80
26589;DHT22;14235;48.532;8.722;2023-05-06T12:28:32;19.90;96.10
26589;DHT22;14235;48.532;8.722;2023-05-06T12:30:58;20.00;95.80
26589;DHT22;14235;48.532;8.722;2023-05-06T12:33:28;20.00;96.00
26589;DHT22;14235;48.532;8.722;2023-05-06T12:36:05;19.90;96.20
26589;DHT22;14235;48.532;8.722;2023-05-06T12:38:31;19.90;96.00
26589;DHT22;14235;48.532;8.722;2023-05-06T12:40:56;19.90;95.90
26589;DHT22;14235;48.532;8.722;2023-05-06T12:43:29;19.40;95.70
26589;DHT22;14235;48.532;8.722;2023-05-06T12:46:02;20.20;95.90
26589;DHT22;14235;48.532;8.722;2023-05-06T12:48:28;20.50;95.40
26589;DHT22;14235;48.532;8.722;2023-05-06T12:50:54;21.00;95.10
26589;DHT22;14235;48.532;8.722;2023-05-06T12:53:34;21.70;93.80
26589;DHT22;14235;48.532;8.722;2023-05-06T12:55:59;21.90;92.10
26589;DHT22;14235;48.532;8.722;2023-05-06T12:58:25;21.80;91.10
26589;DHT22;14235;48.532;8.722;2023-05-06T13:00:51;21.70;92.40
26589;DHT22;14235;48.532;8.722;2023-05-06T13:03:16;21.70;94.10
26589;DHT22;14235;48.532;8.722;2023-05-06T13:05:43;21.70;96.90
26589;DHT22;14235;48.532;8.722;2023-05-06T13:08:10;21.50;90.80
26589;DHT22;14235;48.532;8.722;2023-05-06T13:10:36;21.50;90.90
26589;DHT22;14235;48.532;8.722;2023-05-06T13:13:02;21.50;92.70
26589;DHT22;14235;48.532;8.722;2023-05-06T13:15:27;21.50;93.40
26589;DHT22;14235;48.532;8.722;2023-05-06T13:17:53;21.50;97.30
26589;DHT22;14235;48.532;8.722;2023-05-06T13:20:18;21.50;97.50
26589;DHT22;14235;48.532;8.722;2023-05-06T13:22:44;21.50;98.50
26589;DHT22;14235;48.532;8.722;2023-05-06T13:25:10;21.60;99.90
26589;DHT22;14235;48.532;8.722;2023-05-06T13:27:36;21.60;99.90
26589;DHT22;14235;48.532;8.722;2023-05-06T13:30:02;21.60;99.90
26589;DHT22;14235;48.532;8.722;2023-05-06T13:32:28;21.70;99.90
26589;DHT22;14235;48.532;8.722;2023-05-06T13:34:53;21.80;98.60
26589;DHT22;14235;48.532;8.722;2023-05-06T13:37:19;21.90;99.50
26589;DHT22;14235;48.532;8.722;2023-05-06T13:39:44;21.90;97.30
26589;DHT22;14235;48.532;8.722;2023-05-06T13:42:10;22.00;98.20
26589;DHT22;14235;48.532;8.722;2023-05-06T13:44:38;22.20;96.40
26589;DHT22;14235;48.532;8.722;2023-05-06T13:47:03;22.20;94.00
26589;DHT22;14235;48.532;8.722;2023-05-06T13:49:29;22.20;96.30
26589;DHT22;14235;48.532;8.722;2023-05-06T13:51:54;22.30;95.40
26589;DHT22;14235;48.532;8.722;2023-05-06T13:54:21;22.30;93.00
26589;DHT22;14235;48.532;8.722;2023-05-06T13:56:47;22.40;93.50
26589;DHT22;14235;48.532;8.722;2023-05-06T13:59:12;22.50;92.90
26589;DHT22;14235;48.532;8.722;2023-05-06T14:01:38;22.60;94.10
26589;DHT22;14235;48.532;8.722;2023-05-06T14:04:04;22.70;91.30
26589;DHT22;14235;48.532;8.722;2023-05-06T14:06:30;22.80;90.90
26589;DHT22;14235;48.532;8.722;2023-05-06T14:08:55;22.90;89.90
26589;DHT22;14235;48.532;8.722;2023-05-06T14:11:21;22.90;90.40
26589;DHT22;14235;48.532;8.722;2023-05-06T14:13:47;22.90;92.40
26589;DHT22;14235;48.532;8.722;2023-05-06T14:16:13;22.90;90.70
26589;DHT22;14235;48.532;8.722;2023-05-06T14:18:38;22.90;91.90
26589;DHT22;14235;48.532;8.722;2023-05-06T14:21:04;23.30;91.90
26589;DHT22;14235;48.532;8.722;2023-05-06T14:23:29;23.00;90.70
26589;DHT22;14235;48.532;8.722;2023-05-06T14:25:56;23.20;86.10
26589;DHT22;14235;48.532;8.722;2023-05-06T14:28:22;23.30;87.10
26589;DHT22;14235;48.532;8.722;2023-05-06T14:30:49;23.30;86.00
26589;DHT22;14235;48.532;8.722;2023-05-06T14:33:15;23.30;86.20
26589;DHT22;14235;48.532;8.722;2023-05-06T14:35:41;23.50;84.40
26589;DHT22;14235;48.532;8.722;2023-05-06T14:38:07;23.50;84.20
26589;DHT22;14235;48.532;8.722;2023-05-06T14:40:33;23.50;86.30
26589;DHT22;14235;48.532;8.722;2023-05-06T14:43:02;23.70;86.70
26589;DHT22;14235;48.532;8.722;2023-05-06T14:45:27;23.80;86.10
26589;DHT22;14235;48.532;8.722;2023-05-06T14:47:53;23.90;81.80
26589;DHT22;14235;48.532;8.722;2023-05-06T14:50:19;24.00;88.90
26589;DHT22;14235;48.532;8.722;2023-05-06T14:52:44;24.20;87.00
26589;DHT22;14235;48.532;8.722;2023-05-06T14:55:10;24.40;90.10
26589;DHT22;14235;48.532;8.722;2023-05-06T15:00:05;24.60;68.40
26589;DHT22;14235;48.532;8.722;2023-05-06T15:02:37;24.80;69.00
26589;DHT22;14235;48.532;8.722;2023-05-06T15:05:06;25.00;68.10
26589;DHT22;14235;48.532;8.722;2023-05-06T15:07:32;25.20;67.40
26589;DHT22;14235;48.532;8.722;2023-05-06T15:09:58;25.30;66.80
26589;DHT22;14235;48.532;8.722;2023-05-06T15:12:23;25.50;64.00
26589;DHT22;14235;48.532;8.722;2023-05-06T15:14:49;25.60;63.80
26589;DHT22;14235;48.532;8.722;2023-05-06T15:17:14;25.70;63.50
26589;DHT22;14235;48.532;8.722;2023-05-06T15:19:40;25.70;62.40
26589;DHT22;14235;48.532;8.722;2023-05-06T15:22:05;25.70;61.00
26589;DHT22;14235;48.532;8.722;2023-05-06T15:24:31;25.90;63.70
26589;DHT22;14235;48.532;8.722;2023-05-06T15:26:57;26.10;63.30
26589;DHT22;14235;48.532;8.722;2023-05-06T15:29:23;26.30;61.00
26589;DHT22;14235;48.532;8.722;2023-05-06T15:31:49;26.70;60.30
26589;DHT22;14235;48.532;8.722;2023-05-06T15:34:14;27.00;59.50
26589;DHT22;14235;48.532;8.722;2023-05-06T15:36:40;27.50;59.00
26589;DHT22;14235;48.532;8.722;2023-05-06T15:39:06;28.00;57.50
26589;DHT22;14235;48.532;8.722;2023-05-06T15:41:34;28.10;56.50
26589;DHT22;14235;48.532;8.722;2023-05-06T15:44:02;28.10;57.00
26589;DHT22;14235;48.532;8.722;2023-05-06T15:46:29;29.00;56.20
26589;DHT22;14235;48.532;8.722;2023-05-06T15:48:55;29.60;54.80
26589;DHT22;14235;48.532;8.722;2023-05-06T15:51:21;30.20;55.00
26589;DHT22;14235;48.532;8.722;2023-05-06T15:53:47;29.60;54.40
26589;DHT22;14235;48.532;8.722;2023-05-06T15:56:14;28.70;54.70
26589;DHT22;14235;48.532;8.722;2023-05-06T15:58:42;28.90;54.50
26589;DHT22;14235;48.532;8.722;2023-05-06T16:01:09;29.50;53.10
26589;DHT22;14235;48.532;8.722;2023-05-06T16:03:38;30.20;52.50
26589;DHT22;14235;48.532;8.722;2023-05-06T16:06:07;30.30;50.80
26589;DHT22;14235;48.532;8.722;2023-05-06T16:08:33;30.50;50.10
26589;DHT22;14235;48.532;8.722;2023-05-06T16:10:59;30.10;51.40
26589;DHT22;14235;48.532;8.722;2023-05-06T16:13:24;29.10;52.30